Time;durP1;ratioP1;P1;durP2;ratioP2;P2;SDS_P1;SDS_P2;PMS_P1;PMS_P2;Temp;Humidity;BMP_temperature;BMP_pressure;BME280_temperature;BME280_humidity;BME280_pressure;Samples;Min_cycle;Max_cycle;Signal;HPM_P1;HPM_P2
2021/03/29 00:00:33;;;;;;;10.55;2.78;;;9.10;86.40;;;;;;5037397;28;20025;-81
2021/03/29 00:03:00;;;;;;;17.20;3.67;;;9.20;86.30;;;;;;5020160;28;20041;-80
2021/03/29 00:05:29;;;;;;;13.10;3.40;;;9.20;86.20;;;;;;5034882;28;20072;-79
2021/03/29 00:08:04;;;;;;;13.43;3.60;;;9.20;86.00;;;;;;5037574;28;20029;-80
2021/03/29 00:10:31;;;;;;;8.75;3.20;;;9.30;86.00;;;;;;5038855;28;20123;-79
2021/03/29 00:12:58;;;;;;;15.40;3.35;;;9.30;86.00;;;;;;5040287;28;20488;-79
2021/03/29 00:15:28;;;;;;;10.77;3.33;;;9.30;85.70;;;;;;5021015;28;20045;-80
2021/03/29 00:17:55;;;;;;;7.00;2.83;;;9.40;85.60;;;;;;5036472;28;20124;-80
2021/03/29 00:20:23;;;;;;;10.00;3.45;;;9.40;85.30;;;;;;5035123;28;20136;-79
2021/03/29 00:22:50;;;;;;;9.15;2.97;;;9.40;85.30;;;;;;5032341;28;20021;-79
2021/03/29 00:25:19;;;;;;;8.73;3.13;;;9.50;85.30;;;;;;5030362;28;20397;-80
2021/03/29 00:27:45;;;;;;;11.50;3.30;;;9.50;85.10;;;;;;5034147;28;20041;-80
2021/03/29 00:30:21;;;;;;;11.70;3.60;;;9.50;84.90;;;;;;5031652;28;20043;-80
2021/03/29 00:32:48;;;;;;;9.88;3.35;;;9.50;84.80;;;;;;5033334;28;20059;-80
2021/03/29 00:35:16;;;;;;;11.55;3.70;;;9.50;84.80;;;;;;5032911;28;20045;-80
2021/03/29 00:37:46;;;;;;;11.73;3.65;;;9.40;84.90;;;;;;5041666;28;20039;-80
2021/03/29 00:40:13;;;;;;;10.45;3.38;;;9.30;85.00;;;;;;5030114;28;20061;-77
2021/03/29 00:42:39;;;;;;;10.75;3.45;;;9.30;85.20;;;;;;5031525;28;20033;-80
2021/03/29 00:45:09;;;;;;;7.05;3.70;;;9.30;85.40;;;;;;5024797;28;20166;-81
2021/03/29 00:47:36;;;;;;;12.93;3.88;;;9.30;85.50;;;;;;5040648;28;20387;-79
2021/03/29 00:50:13;;;;;;;11.27;3.90;;;9.20;85.70;;;;;;5017666;28;20037;-81
2021/03/29 00:52:41;;;;;;;17.70;4.10;;;9.30;85.80;;;;;;5032092;28;20045;-81
2021/03/29 00:55:08;;;;;;;10.60;3.58;;;9.30;85.80;;;;;;5026038;28;20036;-79
2021/03/29 00:57:35;;;;;;;13.18;4.13;;;9.30;85.90;;;;;;5021986;28;20093;-79
2021/03/29 01:00:08;;;;;;;11.40;3.53;;;9.30;86.00;;;;;;5038251;28;20049;-79
2021/03/29 01:02:34;;;;;;;9.80;3.65;;;9.30;85.90;;;;;;5042313;28;20040;-80
2021/03/29 01:05:00;;;;;;;10.60;3.25;;;9.30;85.80;;;;;;5029893;28;20038;-80
2021/03/29 01:07:29;;;;;;;11.30;3.40;;;9.30;85.80;;;;;;5000855;28;20044;-78
2021/03/29 01:09:55;;;;;;;12.55;3.60;;;9.30;85.70;;;;;;5020380;28;20244;-79
2021/03/29 01:12:21;;;;;;;16.75;4.18;;;9.40;85.70;;;;;;5032022;28;20116;-80
2021/03/29 01:14:49;;;;;;;11.60;3.60;;;9.30;85.70;;;;;;5023488;28;20228;-79
2021/03/29 01:17:22;;;;;;;15.95;3.97;;;9.30;85.60;;;;;;5020341;28;20034;-80
2021/03/29 01:20:03;;;;;;;13.95;4.22;;;9.30;85.80;;;;;;5038575;28;20040;-81
2021/03/29 01:22:33;;;;;;;12.77;4.05;;;9.30;86.40;;;;;;5042459;28;20033;-81
2021/03/29 01:25:01;;;;;;;12.68;4.25;;;9.20;85.80;;;;;;5038491;28;20021;-79
2021/03/29 01:27:32;;;;;;;16.65;4.53;;;9.20;86.00;;;;;;5038220;28;20084;-81
2021/03/29 01:29:59;;;;;;;11.40;3.90;;;9.20;86.00;;;;;;5035395;28;20038;-78
2021/03/29 01:32:26;;;;;;;11.07;3.55;;;9.30;86.00;;;;;;5012989;28;20037;-79
2021/03/29 01:34:54;;;;;;;14.48;4.30;;;9.30;85.90;;;;;;5016178;28;20029;-79
2021/03/29 01:37:20;;;;;;;12.30;3.97;;;9.30;85.80;;;;;;5022549;28;20152;-77
2021/03/29 01:39:49;;;;;;;13.55;4.43;;;9.30;85.80;;;;;;5032487;28;20564;-80
2021/03/29 01:42:16;;;;;;;14.70;3.70;;;9.40;85.80;;;;;;5021819;28;20091;-81
2021/03/29 01:44:43;;;;;;;7.80;3.97;;;9.40;85.70;;;;;;5029739;28;20045;-79
2021/03/29 01:47:09;;;;;;;11.02;4.18;;;9.40;85.60;;;;;;5022741;28;20041;-81
2021/03/29 01:49:36;;;;;;;10.30;3.72;;;9.50;85.50;;;;;;5035985;28;20107;-80
2021/03/29 01:52:04;;;;;;;11.93;3.70;;;9.50;85.30;;;;;;5037529;28;20029;-80
2021/03/29 01:54:33;;;;;;;12.88;3.97;;;9.50;85.10;;;;;;5023664;28;20037;-82
2021/03/29 01:57:06;;;;;;;10.15;3.80;;;9.60;85.20;;;;;;5031530;28;20038;-81
2021/03/29 01:59:33;;;;;;;12.25;3.80;;;9.50;84.80;;;;;;5036759;28;20072;-80
2021/03/29 02:02:00;;;;;;;8.52;3.72;;;9.60;84.80;;;;;;5039706;28;20547;-81
2021/03/29 02:04:28;;;;;;;15.20;3.97;;;9.60;84.70;;;;;;5031367;28;20357;-79
2021/03/29 02:06:54;;;;;;;11.55;3.65;;;9.60;84.40;;;;;;5029941;28;20037;-79
2021/03/29 02:09:21;;;;;;;13.27;4.30;;;9.60;84.50;;;;;;5038899;28;20036;-81
2021/03/29 02:11:48;;;;;;;15.27;4.30;;;9.60;84.30;;;;;;5039368;28;20044;-81
2021/03/29 02:14:16;;;;;;;12.38;4.18;;;9.60;84.20;;;;;;5042658;28;20036;-80
2021/03/29 02:16:41;;;;;;;16.08;4.22;;;9.60;84.50;;;;;;5037609;28;20102;-81
2021/03/29 02:19:09;;;;;;;13.55;4.28;;;9.60;84.40;;;;;;5023682;28;20517;-83
2021/03/29 02:21:42;;;;;;;10.48;3.75;;;9.60;84.30;;;;;;5005988;28;20040;-80
2021/03/29 02:24:11;;;;;;;16.23;4.75;;;9.60;84.00;;;;;;5042704;28;20029;-78
2021/03/29 02:26:40;;;;;;;20.15;5.45;;;9.60;84.00;;;;;;5044159;28;20045;-79
2021/03/29 02:29:06;;;;;;;12.93;4.18;;;9.70;83.80;;;;;;5030884;28;20033;-80
2021/03/29 02:31:32;;;;;;;14.55;5.10;;;9.60;83.60;;;;;;5043926;28;20411;-80
2021/03/29 02:34:00;;;;;;;15.07;4.75;;;9.70;83.50;;;;;;5006174;28;20269;-80
2021/03/29 02:36:27;;;;;;;13.35;4.55;;;9.70;83.30;;;;;;5030546;28;20045;-81
2021/03/29 02:38:53;;;;;;;14.40;5.03;;;9.70;83.20;;;;;;5034806;28;20037;-79
2021/03/29 02:41:24;;;;;;;14.88;5.22;;;9.70;83.20;;;;;;5036086;28;20083;-81
2021/03/29 02:43:52;;;;;;;17.92;4.97;;;9.70;83.20;;;;;;5035819;28;20036;-79
2021/03/29 02:46:23;;;;;;;15.75;5.03;;;9.70;83.20;;;;;;5037987;28;20057;-80
2021/03/29 02:48:50;;;;;;;9.93;4.60;;;9.80;83.10;;;;;;5042154;28;20036;-78
2021/03/29 02:51:33;;;;;;;14.88;4.90;;;9.70;83.20;;;;;;5031007;28;20049;-80
2021/03/29 02:54:03;;;;;;;11.52;4.53;;;9.80;83.20;;;;;;5036237;28;20515;-80
2021/03/29 02:56:41;;;;;;;19.30;5.07;;;9.80;83.10;;;;;;5034608;28;20061;-81
2021/03/29 02:59:15;;;;;;;14.60;5.07;;;9.80;82.90;;;;;;5029636;28;20135;-80
2021/03/29 03:01:43;;;;;;;13.65;4.93;;;9.70;83.10;;;;;;5030023;28;20068;-82
2021/03/29 03:04:12;;;;;;;12.00;5.40;;;9.70;83.10;;;;;;5024708;28;20037;-81
2021/03/29 03:06:39;;;;;;;13.13;5.07;;;9.70;83.10;;;;;;5034983;28;20478;-81
2021/03/29 03:09:09;;;;;;;10.30;4.28;;;9.70;83.00;;;;;;5028230;28;20045;-79
2021/03/29 03:11:36;;;;;;;12.43;4.80;;;9.70;82.70;;;;;;5036540;28;20053;-80
2021/03/29 03:14:07;;;;;;;16.38;5.40;;;9.70;82.90;;;;;;5035656;28;20041;-79
2021/03/29 03:16:36;;;;;;;10.65;4.60;;;9.70;82.60;;;;;;5033229;28;20029;-80
2021/03/29 03:19:03;;;;;;;11.35;4.90;;;9.70;82.70;;;;;;5028267;28;20037;-80
2021/03/29 03:21:33;;;;;;;14.93;4.90;;;9.70;82.80;;;;;;5042453;28;20065;-79
2021/03/29 03:23:59;;;;;;;16.48;5.05;;;9.60;82.70;;;;;;5033103;28;20484;-79
2021/03/29 03:26:30;;;;;;;13.05;5.20;;;9.60;82.60;;;;;;5031147;28;20034;-80
2021/03/29 03:28:56;;;;;;;11.43;5.28;;;9.60;82.80;;;;;;5014997;28;20033;-79
2021/03/29 03:31:23;;;;;;;14.48;4.93;;;9.60;82.80;;;;;;5031877;28;20041;-80
2021/03/29 03:33:51;;;;;;;11.75;4.80;;;9.60;82.70;;;;;;5042765;28;20037;-81
2021/03/29 03:36:19;;;;;;;14.85;6.43;;;9.60;82.70;;;;;;5017566;28;20523;-80
2021/03/29 03:38:48;;;;;;;16.77;5.97;;;9.60;82.50;;;;;;5030401;28;20173;-79
2021/03/29 03:41:17;;;;;;;16.63;5.78;;;9.60;82.40;;;;;;5034481;28;20961;-78
2021/03/29 03:43:48;;;;;;;14.73;5.93;;;9.60;82.40;;;;;;5040743;28;20029;-79
2021/03/29 03:46:29;;;;;;;17.23;5.50;;;9.60;82.40;;;;;;5037581;28;20082;-79
2021/03/29 03:49:06;;;;;;;15.43;5.85;;;9.60;82.40;;;;;;5030353;28;20033;-80
2021/03/29 03:51:33;;;;;;;13.18;6.20;;;9.50;82.50;;;;;;5034948;28;20073;-80
2021/03/29 03:54:00;;;;;;;13.57;6.50;;;9.60;82.50;;;;;;5036651;28;20476;-80
2021/03/29 03:56:32;;;;;;;16.75;5.95;;;9.50;82.40;;;;;;5037445;28;20034;-80
2021/03/29 03:58:57;;;;;;;16.98;6.38;;;9.50;82.40;;;;;;5021472;28;20741;-80
2021/03/29 04:01:23;;;;;;;20.52;6.00;;;9.50;82.40;;;;;;5039229;28;20120;-79
2021/03/29 04:03:50;;;;;;;17.50;6.05;;;9.60;82.40;;;;;;5017627;28;20088;-79
2021/03/29 04:06:16;;;;;;;16.13;5.82;;;9.50;82.50;;;;;;5022487;28;20065;-80
2021/03/29 04:08:44;;;;;;;16.25;5.65;;;9.50;82.50;;;;;;5020996;28;20041;-79
2021/03/29 04:11:11;;;;;;;16.83;6.00;;;9.50;82.40;;;;;;5016068;28;20041;-79
2021/03/29 04:13:37;;;;;;;17.30;6.10;;;9.50;82.50;;;;;;5031526;28;20052;-80
2021/03/29 04:16:04;;;;;;;17.55;6.38;;;9.60;82.40;;;;;;5029087;28;20033;-78
2021/03/29 04:18:31;;;;;;;20.15;6.25;;;9.50;82.30;;;;;;5023017;28;20032;-81
2021/03/29 04:20:58;;;;;;;18.63;6.20;;;9.60;82.30;;;;;;5029499;28;20403;-79
2021/03/29 04:23:25;;;;;;;15.82;6.60;;;9.60;82.30;;;;;;5035977;28;20514;-80
2021/03/29 04:25:52;;;;;;;12.48;5.97;;;9.60;82.40;;;;;;5014018;28;20512;-80
2021/03/29 04:28:18;;;;;;;13.43;5.70;;;9.60;82.40;;;;;;5042395;28;20029;-80
2021/03/29 04:30:44;;;;;;;18.05;6.53;;;9.60;82.60;;;;;;5034476;28;20300;-80
2021/03/29 04:33:10;;;;;;;15.60;6.32;;;9.60;82.50;;;;;;5034782;28;20506;-79
2021/03/29 04:35:36;;;;;;;16.00;6.10;;;9.60;82.40;;;;;;5031971;28;20056;-79
2021/03/29 04:38:02;;;;;;;12.05;5.90;;;9.60;82.30;;;;;;5041036;28;20488;-80
2021/03/29 04:40:29;;;;;;;14.60;6.03;;;9.70;82.20;;;;;;5025190;28;20194;-78
2021/03/29 04:42:56;;;;;;;16.88;6.30;;;9.70;82.30;;;;;;5034211;28;20035;-80
2021/03/29 04:45:23;;;;;;;13.77;6.70;;;9.70;82.40;;;;;;5009618;28;20044;-81
2021/03/29 04:47:49;;;;;;;14.70;6.35;;;9.60;82.40;;;;;;5023365;28;20045;-80
2021/03/29 04:50:16;;;;;;;15.77;6.30;;;9.60;82.50;;;;;;5031964;28;20447;-79
2021/03/29 04:52:43;;;;;;;13.30;6.35;;;9.60;82.60;;;;;;5015834;28;20203;-80
2021/03/29 04:55:11;;;;;;;17.73;6.45;;;9.60;82.60;;;;;;5028328;28;20120;-81
2021/03/29 04:57:37;;;;;;;15.95;6.38;;;9.50;82.70;;;;;;5036907;28;20126;-81
2021/03/29 05:00:04;;;;;;;14.00;6.20;;;9.50;83.00;;;;;;5038520;28;20383;-80
2021/03/29 05:02:30;;;;;;;19.80;6.60;;;9.50;83.00;;;;;;5035320;28;20033;-80
2021/03/29 05:04:56;;;;;;;18.17;6.55;;;9.50;83.10;;;;;;5007364;28;20043;-80
2021/03/29 05:07:22;;;;;;;16.60;6.63;;;9.40;83.10;;;;;;5041771;28;20451;-80
2021/03/29 05:09:48;;;;;;;16.73;6.90;;;9.40;83.20;;;;;;5017118;28;20079;-80
2021/03/29 05:12:18;;;;;;;19.23;6.57;;;9.40;83.30;;;;;;5035300;28;20037;-79
2021/03/29 05:14:44;;;;;;;17.55;6.63;;;9.30;83.40;;;;;;5034976;28;20578;-81
2021/03/29 05:17:11;;;;;;;16.40;6.95;;;9.30;83.40;;;;;;5041199;28;20036;-80
2021/03/29 05:19:37;;;;;;;19.25;7.00;;;9.40;83.50;;;;;;5039831;28;20542;-80
2021/03/29 05:22:05;;;;;;;21.40;7.30;;;9.30;83.50;;;;;;5036608;28;20526;-78
2021/03/29 05:24:32;;;;;;;18.83;7.38;;;9.30;83.60;;;;;;5002759;28;20576;-80
2021/03/29 05:26:58;;;;;;;16.02;6.68;;;9.30;83.70;;;;;;5032530;28;20029;-81
2021/03/29 05:29:27;;;;;;;18.60;7.35;;;9.30;83.80;;;;;;5040014;28;20049;-79
2021/03/29 05:31:57;;;;;;;20.48;6.65;;;9.30;83.90;;;;;;5025442;28;20044;-80
2021/03/29 05:34:24;;;;;;;14.90;6.50;;;9.20;84.00;;;;;;5023373;28;20032;-80
2021/03/29 05:36:51;;;;;;;19.58;7.32;;;9.20;84.00;;;;;;5014545;28;20482;-80
2021/03/29 05:39:17;;;;;;;16.85;7.30;;;9.20;84.10;;;;;;5040609;28;20483;-81
2021/03/29 05:41:43;;;;;;;14.95;6.90;;;9.20;84.20;;;;;;5024616;28;20033;-80
2021/03/29 05:44:10;;;;;;;20.70;7.20;;;9.20;84.30;;;;;;5032353;28;20033;-82
2021/03/29 05:46:37;;;;;;;13.02;7.07;;;9.20;84.40;;;;;;5041633;28;20504;-79
2021/03/29 05:49:05;;;;;;;20.20;7.25;;;9.20;84.50;;;;;;5045034;28;20029;-79
2021/03/29 05:51:31;;;;;;;18.30;6.97;;;9.20;84.50;;;;;;5036161;28;20037;-78
2021/03/29 05:53:58;;;;;;;18.92;7.63;;;9.20;84.60;;;;;;5028365;28;20029;-82
2021/03/29 05:56:24;;;;;;;19.48;7.05;;;9.20;84.60;;;;;;5045096;28;20033;-81
2021/03/29 05:59:09;;;;;;;18.92;7.07;;;9.20;84.60;;;;;;5042739;28;20033;-82
2021/03/29 06:01:54;;;;;;;17.23;7.47;;;9.20;84.70;;;;;;5029957;28;20117;-81
2021/03/29 06:04:42;;;;;;;17.70;6.43;;;9.20;84.80;;;;;;5036123;28;20500;-80
2021/03/29 06:07:21;;;;;;;12.50;6.32;;;9.20;84.80;;;;;;5039788;28;20067;-81
2021/03/29 06:09:49;;;;;;;18.88;6.60;;;9.20;84.90;;;;;;5039545;28;20036;-80
2021/03/29 06:12:17;;;;;;;19.85;7.07;;;9.30;84.90;;;;;;5042808;28;20393;-81
2021/03/29 06:14:44;;;;;;;19.45;6.20;;;9.30;84.90;;;;;;5020144;28;20049;-79
2021/03/29 06:17:13;;;;;;;14.43;6.75;;;9.30;84.90;;;;;;5026797;28;20557;-79
2021/03/29 06:19:57;;;;;;;19.65;6.70;;;9.30;84.80;;;;;;5035216;28;20361;-80
2021/03/29 06:22:23;;;;;;;19.98;6.60;;;9.30;84.70;;;;;;5038949;28;20029;-80
2021/03/29 06:24:54;;;;;;;17.77;6.63;;;9.40;84.50;;;;;;5037065;28;20502;-79
2021/03/29 06:27:23;;;;;;;16.27;6.78;;;9.40;84.60;;;;;;5044981;28;20029;-79
2021/03/29 06:29:49;;;;;;;17.95;6.35;;;9.50;84.60;;;;;;5026402;28;20375;-79
2021/03/29 06:32:19;;;;;;;17.35;6.15;;;9.50;84.40;;;;;;5024661;28;20048;-80
2021/03/29 06:34:48;;;;;;;16.77;5.97;;;9.50;84.50;;;;;;5009414;28;20047;-80
2021/03/29 06:37:19;;;;;;;19.65;6.25;;;9.50;84.50;;;;;;5009540;28;20029;-80
2021/03/29 06:39:45;;;;;;;15.40;5.72;;;9.60;84.40;;;;;;5037492;28;20452;-79
2021/03/29 06:42:11;;;;;;;23.25;6.00;;;9.60;84.40;;;;;;5024108;28;20507;-79
2021/03/29 06:44:38;;;;;;;13.35;6.05;;;9.70;84.20;;;;;;5036795;28;20037;-79
2021/03/29 06:47:08;;;;;;;17.25;5.97;;;9.70;84.20;;;;;;5033132;28;20045;-78
2021/03/29 06:49:45;;;;;;;15.32;6.07;;;9.80;84.20;;;;;;5040245;28;20060;-80
2021/03/29 06:52:23;;;;;;;16.70;6.63;;;9.80;84.10;;;;;;5039078;28;20450;-80
2021/03/29 06:54:49;;;;;;;13.70;5.10;;;9.80;84.00;;;;;;5045872;28;20032;-79
2021/03/29 06:57:31;;;;;;;16.17;5.15;;;9.90;84.10;;;;;;5026411;28;20032;-80
2021/03/29 06:59:58;;;;;;;17.27;5.78;;;9.90;84.00;;;;;;5037303;28;20036;-80
2021/03/29 07:02:45;;;;;;;22.40;5.60;;;10.00;84.00;;;;;;5048852;28;20071;-80
2021/03/29 07:05:12;;;;;;;19.92;5.55;;;10.00;83.40;;;;;;5045823;28;20098;-80
2021/03/29 07:07:39;;;;;;;18.05;5.00;;;10.10;83.60;;;;;;5044527;28;20415;-79
2021/03/29 07:10:08;;;;;;;18.98;4.97;;;10.20;83.50;;;;;;5037647;28;20443;-80
2021/03/29 07:12:38;;;;;;;13.18;5.07;;;10.20;83.20;;;;;;5040734;28;20029;-80
2021/03/29 07:15:09;;;;;;;14.90;4.65;;;10.20;83.10;;;;;;5035242;28;20045;-79
2021/03/29 07:17:40;;;;;;;17.45;5.38;;;10.30;83.00;;;;;;5038309;28;20030;-80
2021/03/29 07:20:12;;;;;;;13.80;4.72;;;10.30;83.00;;;;;;5034845;28;20030;-80
2021/03/29 07:22:39;;;;;;;14.68;4.93;;;10.40;82.90;;;;;;5044218;28;20037;-78
2021/03/29 07:25:15;;;;;;;17.25;4.88;;;10.50;82.60;;;;;;5042098;28;20033;-80
2021/03/29 07:27:53;;;;;;;15.13;5.20;;;10.50;82.70;;;;;;5024656;28;20390;-80
2021/03/29 07:30:39;;;;;;;19.95;4.90;;;10.60;82.60;;;;;;5042856;28;20041;-79
2021/03/29 07:33:07;;;;;;;16.55;4.95;;;10.60;82.20;;;;;;5051861;28;20028;-80
2021/03/29 07:35:45;;;;;;;13.88;4.70;;;10.60;82.20;;;;;;5029755;28;20442;-79
2021/03/29 07:38:12;;;;;;;15.57;4.80;;;10.70;82.20;;;;;;5052539;28;20041;-80
2021/03/29 07:40:40;;;;;;;15.32;4.82;;;10.80;81.90;;;;;;5044634;28;20064;-80
2021/03/29 07:43:21;;;;;;;19.27;5.45;;;10.80;81.70;;;;;;5043759;28;20029;-82
2021/03/29 07:45:55;;;;;;;18.08;4.97;;;10.90;81.80;;;;;;5055007;28;20171;-79
2021/03/29 07:48:35;;;;;;;15.40;4.35;;;10.90;81.30;;;;;;5059468;28;20029;-79
2021/03/29 07:51:08;;;;;;;17.13;5.03;;;11.00;81.10;;;;;;5037125;28;20838;-80
2021/03/29 07:53:47;;;;;;;15.68;5.38;;;11.00;81.30;;;;;;5034083;28;20040;-78
2021/03/29 07:56:35;;;;;;;14.43;4.70;;;11.10;81.40;;;;;;5032453;28;20615;-80
2021/03/29 07:59:06;;;;;;;16.30;4.55;;;11.10;81.00;;;;;;5045341;28;20028;-80
2021/03/29 08:02:02;;;;;;;21.50;4.80;;;11.20;81.00;;;;;;5047487;28;20067;-79
2021/03/29 08:05:09;;;;;;;16.08;4.80;;;11.30;80.30;;;;;;5051143;28;20147;-78
2021/03/29 08:07:44;;;;;;;12.60;4.13;;;11.30;80.70;;;;;;4984158;28;20042;-79
2021/03/29 08:10:16;;;;;;;18.83;5.25;;;11.40;80.90;;;;;;4963447;28;20042;-82
2021/03/29 08:12:59;;;;;;;23.20;4.88;;;11.40;81.00;;;;;;5008091;28;20045;-80
2021/03/29 08:15:43;;;;;;;;;;;11.50;80.50;;;;;;5027603;28;20122;-79
2021/03/29 08:18:09;;;;;;;18.33;4.65;;;11.60;80.20;;;;;;5024556;28;20023;-80
2021/03/29 08:20:44;;;;;;;15.20;4.72;;;11.70;80.50;;;;;;5018993;28;20025;-80
2021/03/29 08:23:47;;;;;;;15.30;4.97;;;11.70;80.50;;;;;;5033432;28;20049;-78
2021/03/29 08:26:21;;;;;;;14.80;4.90;;;11.80;79.50;;;;;;4993380;28;20046;-80
2021/03/29 08:29:32;;;;;;;16.73;4.78;;;11.90;80.40;;;;;;5059803;28;20071;-79
2021/03/29 08:32:02;;;;;;;16.75;5.07;;;11.90;79.00;;;;;;5027832;28;20045;-78
2021/03/29 08:34:32;;;;;;;18.90;4.82;;;11.90;79.60;;;;;;5031105;28;20076;-80
2021/03/29 08:37:03;;;;;;;18.35;5.18;;;12.00;79.90;;;;;;5022697;28;20065;-81
2021/03/29 08:39:38;;;;;;;11.90;4.82;;;12.10;80.20;;;;;;5047876;28;20029;-82
2021/03/29 08:42:06;;;;;;;11.43;4.20;;;12.20;79.80;;;;;;5048971;28;20438;-79
2021/03/29 08:44:33;;;;;;;15.40;5.00;;;12.20;79.40;;;;;;5037828;28;20071;-79
2021/03/29 08:46:59;;;;;;;16.48;5.45;;;12.20;78.90;;;;;;5047974;28;20033;-81
2021/03/29 08:49:25;;;;;;;15.43;4.78;;;12.30;79.30;;;;;;5027991;28;20490;-80
2021/03/29 08:51:51;;;;;;;19.98;4.93;;;12.40;79.40;;;;;;5027650;28;20089;-81
2021/03/29 08:54:18;;;;;;;17.08;5.13;;;12.40;79.80;;;;;;5055483;28;20479;-79
2021/03/29 08:56:48;;;;;;;16.50;4.45;;;12.50;79.20;;;;;;5026810;28;20056;-80
2021/03/29 08:59:14;;;;;;;14.10;4.65;;;12.50;78.60;;;;;;5041558;28;20064;-79
2021/03/29 09:01:41;;;;;;;18.50;5.00;;;12.60;78.40;;;;;;5015577;28;20109;-80
2021/03/29 09:04:08;;;;;;;15.25;5.15;;;12.60;78.50;;;;;;5028363;28;20049;-80
2021/03/29 09:06:35;;;;;;;19.45;6.28;;;12.60;78.90;;;;;;5030098;28;20068;-81
2021/03/29 09:09:12;;;;;;;10.98;4.85;;;12.70;79.10;;;;;;5053417;28;20041;-80
2021/03/29 09:11:40;;;;;;;21.88;5.75;;;12.70;78.20;;;;;;5032395;28;20095;-81
2021/03/29 09:14:07;;;;;;;15.27;5.10;;;12.80;78.50;;;;;;5042017;28;20029;-81
2021/03/29 09:16:33;;;;;;;18.52;5.47;;;12.90;78.50;;;;;;5028035;28;20133;-78
2021/03/29 09:19:17;;;;;;;17.92;5.32;;;12.90;78.50;;;;;;5036711;28;20036;-80
2021/03/29 09:21:44;;;;;;;14.30;5.32;;;13.00;77.90;;;;;;5049438;28;20041;-80
2021/03/29 09:24:24;;;;;;;15.20;5.82;;;13.00;77.80;;;;;;5044760;28;20309;-82
2021/03/29 09:27:01;;;;;;;15.10;5.25;;;13.10;77.80;;;;;;5028138;28;20056;-79
2021/03/29 09:29:38;;;;;;;13.05;4.80;;;13.10;76.90;;;;;;5046496;28;20034;-82
2021/03/29 09:32:14;;;;;;;14.02;5.38;;;13.10;77.20;;;;;;5050336;28;20042;-82
2021/03/29 09:34:45;;;;;;;18.08;5.53;;;13.10;77.00;;;;;;5047736;28;20539;-81
2021/03/29 09:37:17;;;;;;;17.73;5.28;;;13.20;77.60;;;;;;5049079;28;20122;-80
2021/03/29 09:39:42;;;;;;;11.50;5.20;;;13.20;76.90;;;;;;5044944;28;20060;-79
2021/03/29 09:42:09;;;;;;;20.35;5.55;;;13.20;77.10;;;;;;5031669;28;20518;-83
2021/03/29 09:44:34;;;;;;;20.23;6.05;;;13.20;76.90;;;;;;5041399;28;20038;-79
2021/03/29 09:47:00;;;;;;;18.30;5.72;;;13.20;77.10;;;;;;5039542;28;20305;-81
2021/03/29 09:49:30;;;;;;;14.30;5.60;;;13.30;77.60;;;;;;5041916;28;20044;-80
2021/03/29 09:52:08;;;;;;;15.60;5.72;;;13.30;77.30;;;;;;5033319;28;20033;-79
2021/03/29 09:54:37;;;;;;;18.27;5.90;;;13.40;76.80;;;;;;5045221;28;20041;-79
2021/03/29 09:57:24;;;;;;;18.38;5.72;;;13.40;77.00;;;;;;5032282;28;20037;-80
2021/03/29 09:59:51;;;;;;;20.23;6.10;;;13.50;77.20;;;;;;5043835;28;20041;-81
2021/03/29 10:02:24;;;;;;;25.50;6.05;;;13.50;77.00;;;;;;5043306;28;20059;-81
2021/03/29 10:05:06;;;;;;;19.52;6.25;;;13.60;77.40;;;;;;5047814;28;20119;-81
2021/03/29 10:07:32;;;;;;;20.88;6.60;;;13.70;77.10;;;;;;5045839;28;20520;-81
2021/03/29 10:10:00;;;;;;;19.83;5.57;;;13.80;76.80;;;;;;5026553;28;20124;-80
2021/03/29 10:12:29;;;;;;;17.90;6.20;;;13.80;76.60;;;;;;5044745;28;20041;-79
2021/03/29 10:15:11;;;;;;;16.25;5.85;;;13.80;76.40;;;;;;5045067;28;20439;-80
2021/03/29 10:17:38;;;;;;;18.10;5.72;;;13.90;76.60;;;;;;5035065;28;20068;-80
2021/03/29 10:20:17;;;;;;;17.85;5.80;;;14.00;76.50;;;;;;5038805;28;20037;-82
2021/03/29 10:22:43;;;;;;;19.23;5.88;;;14.10;76.00;;;;;;5044361;28;20037;-81
2021/03/29 10:25:14;;;;;;;18.85;6.47;;;14.20;76.10;;;;;;5045327;28;20034;-80
2021/03/29 10:27:46;;;;;;;17.17;6.78;;;14.30;76.00;;;;;;5048443;28;20087;-81
2021/03/29 10:30:33;;;;;;;19.75;7.05;;;14.30;75.30;;;;;;5050735;28;20450;-81
2021/03/29 10:33:04;;;;;;;19.65;7.43;;;14.40;74.60;;;;;;5056859;28;20036;-80
2021/03/29 10:35:32;;;;;;;20.83;6.95;;;14.40;75.10;;;;;;5045327;28;20092;-79
2021/03/29 10:38:01;;;;;;;20.58;6.95;;;14.40;75.20;;;;;;5048855;28;20036;-81
2021/03/29 10:40:26;;;;;;;17.70;7.05;;;14.50;75.30;;;;;;5050524;28;20041;-80
2021/03/29 10:42:54;;;;;;;22.40;8.30;;;14.60;75.30;;;;;;5034501;28;20029;-82
2021/03/29 10:45:20;;;;;;;20.70;7.22;;;14.70;75.20;;;;;;5041419;28;20029;-80
2021/03/29 10:47:47;;;;;;;21.58;7.20;;;14.80;74.70;;;;;;5046800;28;20032;-79
2021/03/29 10:50:18;;;;;;;16.88;6.40;;;14.80;74.20;;;;;;5060565;28;20047;-79
2021/03/29 10:52:43;;;;;;;23.63;7.10;;;14.80;73.90;;;;;;5054944;28;20157;-82
2021/03/29 10:55:10;;;;;;;20.42;6.72;;;14.80;74.70;;;;;;5031025;28;20033;-81
2021/03/29 10:57:36;;;;;;;15.50;6.50;;;14.90;74.80;;;;;;5031584;28;20507;-80
2021/03/29 11:00:05;;;;;;;20.00;6.78;;;15.00;74.80;;;;;;5046645;28;20041;-79
2021/03/29 11:02:31;;;;;;;23.88;6.40;;;15.10;74.20;;;;;;5052780;28;20552;-80
2021/03/29 11:04:57;;;;;;;17.27;7.03;;;15.10;74.40;;;;;;5049999;28;20032;-80
2021/03/29 11:07:23;;;;;;;23.95;6.97;;;15.10;74.30;;;;;;5051315;28;20036;-79
2021/03/29 11:09:49;;;;;;;23.40;7.05;;;15.20;74.50;;;;;;5044229;28;20033;-82
2021/03/29 11:12:15;;;;;;;17.90;6.47;;;15.20;73.70;;;;;;5044315;28;20064;-80
2021/03/29 11:14:41;;;;;;;21.50;7.03;;;15.20;73.50;;;;;;5046051;28;20041;-80
2021/03/29 11:17:09;;;;;;;21.38;6.93;;;15.20;73.10;;;;;;5030786;28;20052;-79
2021/03/29 11:19:34;;;;;;;21.90;6.78;;;15.20;73.10;;;;;;5045486;28;20028;-81
2021/03/29 11:22:00;;;;;;;18.73;6.57;;;15.20;72.80;;;;;;5034886;28;20029;-80
2021/03/29 11:24:26;;;;;;;19.65;7.05;;;15.20;73.10;;;;;;5037669;28;20040;-79
2021/03/29 11:26:52;;;;;;;21.23;7.05;;;15.30;72.70;;;;;;5051892;28;20040;-80
2021/03/29 11:29:17;;;;;;;20.70;7.03;;;15.30;72.40;;;;;;5052460;28;20033;-81
2021/03/29 11:31:44;;;;;;;18.58;7.25;;;15.30;72.40;;;;;;5045190;28;20040;-81
2021/03/29 11:34:11;;;;;;;21.70;6.93;;;15.40;72.40;;;;;;5041732;28;20037;-81
2021/03/29 11:36:37;;;;;;;18.38;6.75;;;15.50;72.60;;;;;;5046222;28;20048;-81
2021/03/29 11:39:06;;;;;;;20.10;7.35;;;15.60;72.30;;;;;;5049335;28;20029;-79
2021/03/29 11:41:32;;;;;;;22.85;6.85;;;15.70;72.00;;;;;;5051967;28;20056;-79
2021/03/29 11:43:58;;;;;;;22.02;6.82;;;15.80;72.10;;;;;;5042264;28;20029;-80
2021/03/29 11:46:24;;;;;;;18.58;6.60;;;15.90;71.70;;;;;;5047598;28;20252;-80
2021/03/29 11:48:49;;;;;;;20.05;7.10;;;15.90;71.30;;;;;;5043305;28;20510;-81
2021/03/29 11:51:15;;;;;;;16.42;6.45;;;16.00;70.90;;;;;;5040477;28;20071;-81
2021/03/29 11:53:41;;;;;;;18.35;6.75;;;16.10;70.70;;;;;;5033428;28;20577;-83
2021/03/29 11:56:07;;;;;;;20.30;7.45;;;16.20;70.20;;;;;;5028479;28;20415;-81
2021/03/29 11:58:33;;;;;;;19.33;6.70;;;16.30;70.50;;;;;;5053630;28;20040;-80
2021/03/29 12:01:12;;;;;;;15.00;6.55;;;16.40;70.00;;;;;;5035033;28;20033;-81
2021/03/29 12:03:47;;;;;;;23.15;7.28;;;16.50;69.80;;;;;;5053741;28;20412;-79
2021/03/29 12:06:18;;;;;;;21.02;6.53;;;16.60;70.00;;;;;;5051362;28;20029;-80
2021/03/29 12:14:31;;;;;;;19.73;6.18;;;17.10;68.70;;;;;;5051127;28;20166;-80
2021/03/29 12:16:59;;;;;;;20.98;7.70;;;17.20;68.10;;;;;;5048022;28;20564;-80
2021/03/29 12:19:25;;;;;;;19.27;6.53;;;17.20;67.60;;;;;;5040780;28;20071;-82
2021/03/29 12:21:59;;;;;;;17.85;6.47;;;17.30;67.50;;;;;;5039305;28;20052;-79
2021/03/29 12:24:30;;;;;;;16.88;5.90;;;17.30;66.20;;;;;;5050590;28;20028;-80
2021/03/29 12:27:03;;;;;;;18.77;5.78;;;17.40;65.80;;;;;;5048975;28;20033;-81
2021/03/29 12:29:39;;;;;;;17.55;6.05;;;17.50;65.60;;;;;;5050107;28;20515;-81
2021/03/29 12:32:15;;;;;;;14.85;5.90;;;17.50;65.00;;;;;;5057834;28;20547;-81
2021/03/29 12:34:44;;;;;;;19.45;6.53;;;17.40;65.20;;;;;;5046556;28;20501;-81
2021/03/29 12:37:12;;;;;;;15.02;6.00;;;17.40;65.00;;;;;;5058636;28;20113;-79
2021/03/29 12:39:45;;;;;;;19.00;6.40;;;17.40;65.70;;;;;;5030500;28;20038;-79
2021/03/29 12:42:14;;;;;;;18.48;6.45;;;17.30;65.10;;;;;;5046497;28;20395;-81
2021/03/29 12:44:40;;;;;;;18.80;6.95;;;17.30;66.00;;;;;;5049062;28;20274;-81
2021/03/29 12:47:10;;;;;;;14.73;6.20;;;17.30;67.00;;;;;;5042846;28;20032;-81
2021/03/29 12:49:36;;;;;;;16.15;7.22;;;17.30;66.60;;;;;;5029785;28;20152;-81
2021/03/29 12:52:03;;;;;;;18.08;7.18;;;17.40;66.60;;;;;;5031929;28;20451;-81
2021/03/29 12:54:32;;;;;;;16.70;7.32;;;17.40;65.90;;;;;;5009851;28;20132;-80
2021/03/29 12:56:59;;;;;;;19.60;7.00;;;17.40;66.10;;;;;;5040299;28;20067;-82
2021/03/29 12:59:29;;;;;;;17.02;6.35;;;17.40;65.80;;;;;;5040076;28;20051;-80
2021/03/29 13:01:55;;;;;;;20.10;6.18;;;17.40;65.50;;;;;;5041220;28;20424;-81